Quitman, Mississippi
Current Conditions -  °F | °C
As of 6:58 PM on Saturday 20 Dec 2014 (Local Time) from KMEI Reporting Station
Clear Clear  
Wind Chill: 41°   Ceiling: Unl
Heat Index: 41°   Visibility: 10mi
Dew Point: 39°   Wind: 3mph
Humidity: 93%   Direction: 360°N
Pressure: 30.19"   Gusts: NA
Location:  32.04°N, 88.73°W
Report Text: KMEI 210058Z 36003KT 10SM CLR 05/04 A3019 RMK AO2 SLP222 T00500039
Loading
Personal Weather Stations






























Interactive Weather Map New forecast layout! Learn more

10-Day Weather Forecast

Advertisements
Track Severe Weather on mobile